sensor_id;sensor_type;location;lat;lon;timestamp;P1;durP1;ratioP1;P2;durP2;ratioP2
38318;SDS011;24121;53.536;10.224;2024-03-06T00:01:28;16.23;;;10.88;;
38318;SDS011;24121;53.536;10.224;2024-03-06T00:03:53;16.17;;;10.95;;
38318;SDS011;24121;53.536;10.224;2024-03-06T00:06:18;17.42;;;11.63;;
38318;SDS011;24121;53.536;10.224;2024-03-06T00:08:43;17.48;;;10.13;;
38318;SDS011;24121;53.536;10.224;2024-03-06T00:11:09;15.80;;;10.63;;
38318;SDS011;24121;53.536;10.224;2024-03-06T00:13:34;14.55;;;10.55;;
38318;SDS011;24121;53.536;10.224;2024-03-06T00:15:59;16.02;;;10.93;;
38318;SDS011;24121;53.536;10.224;2024-03-06T00:18:25;13.77;;;9.27;;
38318;SDS011;24121;53.536;10.224;2024-03-06T00:20:50;13.95;;;9.85;;
38318;SDS011;24121;53.536;10.224;2024-03-06T00:23:15;13.02;;;9.60;;
38318;SDS011;24121;53.536;10.224;2024-03-06T00:25:41;12.52;;;9.18;;
38318;SDS011;24121;53.536;10.224;2024-03-06T00:28:06;13.70;;;9.98;;
38318;SDS011;24121;53.536;10.224;2024-03-06T00:30:31;15.02;;;9.48;;
38318;SDS011;24121;53.536;10.224;2024-03-06T00:32:57;14.48;;;9.80;;
38318;SDS011;24121;53.536;10.224;2024-03-06T00:35:23;13.73;;;9.25;;
38318;SDS011;24121;53.536;10.224;2024-03-06T00:37:49;13.25;;;9.57;;
38318;SDS011;24121;53.536;10.224;2024-03-06T00:40:14;12.25;;;9.18;;
38318;SDS011;24121;53.536;10.224;2024-03-06T00:42:39;14.30;;;9.60;;
38318;SDS011;24121;53.536;10.224;2024-03-06T00:45:06;14.18;;;9.20;;
38318;SDS011;24121;53.536;10.224;2024-03-06T00:47:31;12.20;;;8.90;;
38318;SDS011;24121;53.536;10.224;2024-03-06T00:49:59;12.20;;;8.88;;
38318;SDS011;24121;53.536;10.224;2024-03-06T00:52:24;12.60;;;9.13;;
38318;SDS011;24121;53.536;10.224;2024-03-06T00:54:49;12.70;;;9.20;;
38318;SDS011;24121;53.536;10.224;2024-03-06T00:57:15;14.50;;;9.23;;
38318;SDS011;24121;53.536;10.224;2024-03-06T00:59:40;12.10;;;9.15;;
38318;SDS011;24121;53.536;10.224;2024-03-06T01:02:05;12.60;;;9.43;;
38318;SDS011;24121;53.536;10.224;2024-03-06T01:04:31;14.55;;;8.75;;
38318;SDS011;24121;53.536;10.224;2024-03-06T01:06:56;13.10;;;9.25;;
38318;SDS011;24121;53.536;10.224;2024-03-06T01:09:23;12.80;;;9.23;;
38318;SDS011;24121;53.536;10.224;2024-03-06T01:11:48;10.95;;;7.90;;
38318;SDS011;24121;53.536;10.224;2024-03-06T01:14:14;11.52;;;8.38;;
38318;SDS011;24121;53.536;10.224;2024-03-06T01:16:39;10.65;;;8.35;;
38318;SDS011;24121;53.536;10.224;2024-03-06T01:19:04;11.70;;;8.10;;
38318;SDS011;24121;53.536;10.224;2024-03-06T01:21:30;11.93;;;9.05;;
38318;SDS011;24121;53.536;10.224;2024-03-06T01:23:55;15.25;;;8.98;;
38318;SDS011;24121;53.536;10.224;2024-03-06T01:26:20;14.35;;;8.98;;
38318;SDS011;24121;53.536;10.224;2024-03-06T01:28:46;13.50;;;8.32;;
38318;SDS011;24121;53.536;10.224;2024-03-06T01:31:11;13.25;;;8.73;;
38318;SDS011;24121;53.536;10.224;2024-03-06T01:33:36;12.77;;;8.40;;
38318;SDS011;24121;53.536;10.224;2024-03-06T01:36:02;13.75;;;9.02;;
38318;SDS011;24121;53.536;10.224;2024-03-06T01:38:27;12.15;;;8.43;;
38318;SDS011;24121;53.536;10.224;2024-03-06T01:40:52;11.50;;;8.80;;
38318;SDS011;24121;53.536;10.224;2024-03-06T01:43:18;12.32;;;8.85;;
38318;SDS011;24121;53.536;10.224;2024-03-06T01:45:48;12.43;;;8.90;;
38318;SDS011;24121;53.536;10.224;2024-03-06T01:48:14;10.75;;;8.10;;
38318;SDS011;24121;53.536;10.224;2024-03-06T01:50:41;10.68;;;8.18;;
38318;SDS011;24121;53.536;10.224;2024-03-06T01:53:06;12.40;;;8.45;;
38318;SDS011;24121;53.536;10.224;2024-03-06T01:55:32;11.25;;;8.10;;
38318;SDS011;24121;53.536;10.224;2024-03-06T01:57:58;11.15;;;7.50;;
38318;SDS011;24121;53.536;10.224;2024-03-06T02:00:23;11.48;;;8.60;;
38318;SDS011;24121;53.536;10.224;2024-03-06T02:02:48;13.40;;;8.75;;
38318;SDS011;24121;53.536;10.224;2024-03-06T02:05:14;10.70;;;7.72;;
38318;SDS011;24121;53.536;10.224;2024-03-06T02:07:39;12.27;;;8.35;;
38318;SDS011;24121;53.536;10.224;2024-03-06T02:10:07;13.18;;;8.73;;
38318;SDS011;24121;53.536;10.224;2024-03-06T02:12:34;10.30;;;7.65;;
38318;SDS011;24121;53.536;10.224;2024-03-06T02:15:00;11.40;;;8.20;;
38318;SDS011;24121;53.536;10.224;2024-03-06T02:17:28;13.65;;;9.20;;
38318;SDS011;24121;53.536;10.224;2024-03-06T02:19:54;11.77;;;8.70;;
38318;SDS011;24121;53.536;10.224;2024-03-06T02:22:20;11.45;;;8.52;;
38318;SDS011;24121;53.536;10.224;2024-03-06T02:24:47;13.10;;;8.43;;
38318;SDS011;24121;53.536;10.224;2024-03-06T02:27:13;11.20;;;8.30;;
38318;SDS011;24121;53.536;10.224;2024-03-06T02:29:38;10.70;;;8.02;;
38318;SDS011;24121;53.536;10.224;2024-03-06T02:32:04;11.95;;;7.70;;
38318;SDS011;24121;53.536;10.224;2024-03-06T02:34:29;12.02;;;7.70;;
38318;SDS011;24121;53.536;10.224;2024-03-06T02:36:55;12.30;;;7.95;;
38318;SDS011;24121;53.536;10.224;2024-03-06T02:39:21;11.27;;;8.00;;
38318;SDS011;24121;53.536;10.224;2024-03-06T02:41:46;10.68;;;8.02;;
38318;SDS011;24121;53.536;10.224;2024-03-06T02:44:12;14.50;;;8.35;;
38318;SDS011;24121;53.536;10.224;2024-03-06T02:46:38;10.88;;;7.55;;
38318;SDS011;24121;53.536;10.224;2024-03-06T02:49:03;12.02;;;7.78;;
38318;SDS011;24121;53.536;10.224;2024-03-06T02:51:30;10.02;;;8.00;;
38318;SDS011;24121;53.536;10.224;2024-03-06T02:53:56;12.07;;;7.45;;
38318;SDS011;24121;53.536;10.224;2024-03-06T02:56:21;11.68;;;7.55;;
38318;SDS011;24121;53.536;10.224;2024-03-06T02:58:46;12.32;;;7.88;;
38318;SDS011;24121;53.536;10.224;2024-03-06T03:01:13;12.05;;;7.45;;
38318;SDS011;24121;53.536;10.224;2024-03-06T03:03:41;12.07;;;7.80;;
38318;SDS011;24121;53.536;10.224;2024-03-06T03:06:07;10.43;;;6.88;;
38318;SDS011;24121;53.536;10.224;2024-03-06T03:08:32;7.97;;;6.80;;
38318;SDS011;24121;53.536;10.224;2024-03-06T03:10:58;11.27;;;7.00;;
38318;SDS011;24121;53.536;10.224;2024-03-06T03:13:23;10.07;;;6.93;;
38318;SDS011;24121;53.536;10.224;2024-03-06T03:15:49;9.95;;;7.40;;
38318;SDS011;24121;53.536;10.224;2024-03-06T03:18:14;8.55;;;6.25;;
38318;SDS011;24121;53.536;10.224;2024-03-06T03:20:39;11.98;;;8.13;;
38318;SDS011;24121;53.536;10.224;2024-03-06T03:23:05;11.23;;;7.18;;
38318;SDS011;24121;53.536;10.224;2024-03-06T03:25:36;10.70;;;6.93;;
38318;SDS011;24121;53.536;10.224;2024-03-06T03:28:01;9.60;;;6.65;;
38318;SDS011;24121;53.536;10.224;2024-03-06T03:30:27;9.35;;;6.40;;
38318;SDS011;24121;53.536;10.224;2024-03-06T03:32:52;9.82;;;6.65;;
38318;SDS011;24121;53.536;10.224;2024-03-06T03:35:17;9.65;;;6.63;;
38318;SDS011;24121;53.536;10.224;2024-03-06T03:37:45;11.65;;;6.20;;
38318;SDS011;24121;53.536;10.224;2024-03-06T03:40:11;7.97;;;5.88;;
38318;SDS011;24121;53.536;10.224;2024-03-06T03:42:37;10.30;;;6.40;;
38318;SDS011;24121;53.536;10.224;2024-03-06T03:45:03;10.57;;;6.63;;
38318;SDS011;24121;53.536;10.224;2024-03-06T03:47:29;11.02;;;6.13;;
38318;SDS011;24121;53.536;10.224;2024-03-06T03:49:55;8.95;;;6.35;;
38318;SDS011;24121;53.536;10.224;2024-03-06T03:52:20;8.88;;;6.22;;
38318;SDS011;24121;53.536;10.224;2024-03-06T03:54:45;9.57;;;6.35;;
38318;SDS011;24121;53.536;10.224;2024-03-06T03:57:10;10.02;;;6.15;;
38318;SDS011;24121;53.536;10.224;2024-03-06T03:59:36;10.10;;;6.00;;
38318;SDS011;24121;53.536;10.224;2024-03-06T04:02:02;8.35;;;6.38;;
38318;SDS011;24121;53.536;10.224;2024-03-06T04:04:27;12.88;;;6.28;;
38318;SDS011;24121;53.536;10.224;2024-03-06T04:06:54;8.82;;;5.47;;
38318;SDS011;24121;53.536;10.224;2024-03-06T04:09:19;9.07;;;6.15;;
38318;SDS011;24121;53.536;10.224;2024-03-06T04:11:44;8.38;;;5.88;;
38318;SDS011;24121;53.536;10.224;2024-03-06T04:14:09;8.43;;;6.20;;
38318;SDS011;24121;53.536;10.224;2024-03-06T04:16:35;11.38;;;5.60;;
38318;SDS011;24121;53.536;10.224;2024-03-06T04:19:01;7.15;;;5.60;;
38318;SDS011;24121;53.536;10.224;2024-03-06T04:21:26;8.80;;;5.43;;
38318;SDS011;24121;53.536;10.224;2024-03-06T04:23:51;8.52;;;5.55;;
38318;SDS011;24121;53.536;10.224;2024-03-06T04:26:17;9.60;;;5.18;;
38318;SDS011;24121;53.536;10.224;2024-03-06T04:28:42;10.07;;;5.40;;
38318;SDS011;24121;53.536;10.224;2024-03-06T04:31:08;6.25;;;5.13;;
38318;SDS011;24121;53.536;10.224;2024-03-06T04:33:34;9.63;;;5.90;;
38318;SDS011;24121;53.536;10.224;2024-03-06T04:36:03;9.68;;;5.72;;
38318;SDS011;24121;53.536;10.224;2024-03-06T04:38:30;10.15;;;5.65;;
38318;SDS011;24121;53.536;10.224;2024-03-06T04:40:56;7.88;;;5.72;;
38318;SDS011;24121;53.536;10.224;2024-03-06T04:43:21;7.85;;;5.78;;
38318;SDS011;24121;53.536;10.224;2024-03-06T04:45:46;8.00;;;6.10;;
38318;SDS011;24121;53.536;10.224;2024-03-06T04:48:11;7.65;;;5.25;;
38318;SDS011;24121;53.536;10.224;2024-03-06T04:50:37;7.88;;;5.53;;
38318;SDS011;24121;53.536;10.224;2024-03-06T04:53:02;6.88;;;5.43;;
38318;SDS011;24121;53.536;10.224;2024-03-06T04:55:27;7.35;;;5.18;;
38318;SDS011;24121;53.536;10.224;2024-03-06T04:57:53;11.10;;;6.43;;
38318;SDS011;24121;53.536;10.224;2024-03-06T05:00:18;9.07;;;5.75;;
38318;SDS011;24121;53.536;10.224;2024-03-06T05:02:44;6.53;;;5.22;;
38318;SDS011;24121;53.536;10.224;2024-03-06T05:05:09;7.78;;;5.88;;
38318;SDS011;24121;53.536;10.224;2024-03-06T05:07:34;8.25;;;5.30;;
38318;SDS011;24121;53.536;10.224;2024-03-06T05:10:00;6.78;;;5.63;;
38318;SDS011;24121;53.536;10.224;2024-03-06T05:12:25;6.40;;;5.75;;
38318;SDS011;24121;53.536;10.224;2024-03-06T05:14:51;9.02;;;6.20;;
38318;SDS011;24121;53.536;10.224;2024-03-06T05:17:17;11.18;;;6.28;;
38318;SDS011;24121;53.536;10.224;2024-03-06T05:19:43;7.20;;;5.50;;
38318;SDS011;24121;53.536;10.224;2024-03-06T05:22:09;7.03;;;5.47;;
38318;SDS011;24121;53.536;10.224;2024-03-06T05:24:36;10.10;;;6.22;;
38318;SDS011;24121;53.536;10.224;2024-03-06T05:27:02;9.98;;;6.03;;
38318;SDS011;24121;53.536;10.224;2024-03-06T05:29:27;9.80;;;5.68;;
38318;SDS011;24121;53.536;10.224;2024-03-06T05:31:52;10.10;;;6.18;;
38318;SDS011;24121;53.536;10.224;2024-03-06T05:34:18;9.75;;;5.93;;
38318;SDS011;24121;53.536;10.224;2024-03-06T05:36:43;7.65;;;6.32;;
38318;SDS011;24121;53.536;10.224;2024-03-06T05:39:08;9.20;;;5.60;;
38318;SDS011;24121;53.536;10.224;2024-03-06T05:41:37;10.15;;;6.55;;
38318;SDS011;24121;53.536;10.224;2024-03-06T05:44:06;10.60;;;6.70;;
38318;SDS011;24121;53.536;10.224;2024-03-06T05:46:32;11.63;;;7.63;;
38318;SDS011;24121;53.536;10.224;2024-03-06T05:48:57;11.27;;;7.25;;
38318;SDS011;24121;53.536;10.224;2024-03-06T05:51:23;12.07;;;6.90;;
38318;SDS011;24121;53.536;10.224;2024-03-06T05:53:48;11.50;;;6.90;;
38318;SDS011;24121;53.536;10.224;2024-03-06T05:56:13;10.70;;;7.80;;
38318;SDS011;24121;53.536;10.224;2024-03-06T05:58:38;13.35;;;7.18;;
38318;SDS011;24121;53.536;10.224;2024-03-06T06:01:04;10.60;;;7.47;;
38318;SDS011;24121;53.536;10.224;2024-03-06T06:03:29;9.50;;;6.85;;
38318;SDS011;24121;53.536;10.224;2024-03-06T06:05:55;10.75;;;6.80;;
38318;SDS011;24121;53.536;10.224;2024-03-06T06:08:21;9.77;;;6.95;;
38318;SDS011;24121;53.536;10.224;2024-03-06T06:10:46;10.75;;;7.53;;
38318;SDS011;24121;53.536;10.224;2024-03-06T06:13:11;10.90;;;6.63;;
38318;SDS011;24121;53.536;10.224;2024-03-06T06:15:37;10.48;;;6.47;;
38318;SDS011;24121;53.536;10.224;2024-03-06T06:18:02;10.80;;;6.90;;
38318;SDS011;24121;53.536;10.224;2024-03-06T06:20:28;8.85;;;6.45;;
38318;SDS011;24121;53.536;10.224;2024-03-06T06:22:53;11.15;;;6.38;;
38318;SDS011;24121;53.536;10.224;2024-03-06T06:25:18;9.45;;;6.75;;
38318;SDS011;24121;53.536;10.224;2024-03-06T06:32:40;11.90;;;6.50;;
38318;SDS011;24121;53.536;10.224;2024-03-06T06:35:06;9.55;;;6.28;;
38318;SDS011;24121;53.536;10.224;2024-03-06T06:37:32;16.38;;;8.68;;
38318;SDS011;24121;53.536;10.224;2024-03-06T06:39:57;13.35;;;8.00;;
38318;SDS011;24121;53.536;10.224;2024-03-06T06:42:24;10.98;;;7.10;;
38318;SDS011;24121;53.536;10.224;2024-03-06T06:44:49;10.07;;;6.80;;
38318;SDS011;24121;53.536;10.224;2024-03-06T06:47:15;10.50;;;6.32;;
38318;SDS011;24121;53.536;10.224;2024-03-06T06:49:41;12.15;;;6.78;;
38318;SDS011;24121;53.536;10.224;2024-03-06T06:52:06;13.30;;;6.65;;
38318;SDS011;24121;53.536;10.224;2024-03-06T06:54:32;8.82;;;6.03;;
38318;SDS011;24121;53.536;10.224;2024-03-06T06:56:57;7.32;;;5.82;;
38318;SDS011;24121;53.536;10.224;2024-03-06T06:59:23;8.23;;;5.82;;
38318;SDS011;24121;53.536;10.224;2024-03-06T07:01:48;9.88;;;6.00;;
38318;SDS011;24121;53.536;10.224;2024-03-06T07:04:14;10.55;;;6.50;;
38318;SDS011;24121;53.536;10.224;2024-03-06T07:06:41;11.77;;;7.93;;
38318;SDS011;24121;53.536;10.224;2024-03-06T07:09:07;13.35;;;8.85;;
38318;SDS011;24121;53.536;10.224;2024-03-06T07:11:34;8.38;;;6.35;;
38318;SDS011;24121;53.536;10.224;2024-03-06T07:13:59;8.15;;;5.65;;
38318;SDS011;24121;53.536;10.224;2024-03-06T07:16:24;8.23;;;6.53;;
38318;SDS011;24121;53.536;10.224;2024-03-06T07:18:50;9.63;;;6.85;;
38318;SDS011;24121;53.536;10.224;2024-03-06T07:21:15;8.98;;;6.93;;
38318;SDS011;24121;53.536;10.224;2024-03-06T07:23:40;9.13;;;6.60;;
38318;SDS011;24121;53.536;10.224;2024-03-06T07:26:06;8.88;;;6.45;;
38318;SDS011;24121;53.536;10.224;2024-03-06T07:28:31;9.55;;;7.15;;
38318;SDS011;24121;53.536;10.224;2024-03-06T07:30:57;10.07;;;6.80;;
38318;SDS011;24121;53.536;10.224;2024-03-06T07:33:23;9.88;;;6.97;;
38318;SDS011;24121;53.536;10.224;2024-03-06T07:35:48;8.70;;;6.25;;
38318;SDS011;24121;53.536;10.224;2024-03-06T07:38:13;10.77;;;6.72;;
38318;SDS011;24121;53.536;10.224;2024-03-06T07:40:40;9.85;;;7.18;;
38318;SDS011;24121;53.536;10.224;2024-03-06T07:43:05;8.55;;;6.22;;
38318;SDS011;24121;53.536;10.224;2024-03-06T07:45:31;9.27;;;6.60;;
38318;SDS011;24121;53.536;10.224;2024-03-06T07:47:56;9.65;;;6.82;;
38318;SDS011;24121;53.536;10.224;2024-03-06T07:50:21;8.98;;;6.40;;
38318;SDS011;24121;53.536;10.224;2024-03-06T07:52:47;8.13;;;6.60;;
38318;SDS011;24121;53.536;10.224;2024-03-06T07:55:13;8.98;;;6.80;;
38318;SDS011;24121;53.536;10.224;2024-03-06T07:57:38;7.72;;;6.15;;
38318;SDS011;24121;53.536;10.224;2024-03-06T08:00:04;10.35;;;7.03;;
38318;SDS011;24121;53.536;10.224;2024-03-06T08:02:39;8.40;;;6.50;;
38318;SDS011;24121;53.536;10.224;2024-03-06T08:05:14;8.50;;;6.13;;
38318;SDS011;24121;53.536;10.224;2024-03-06T08:07:40;8.27;;;6.05;;
38318;SDS011;24121;53.536;10.224;2024-03-06T08:10:07;8.52;;;6.68;;
38318;SDS011;24121;53.536;10.224;2024-03-06T08:12:41;7.97;;;6.32;;
38318;SDS011;24121;53.536;10.224;2024-03-06T08:15:10;7.32;;;6.35;;
38318;SDS011;24121;53.536;10.224;2024-03-06T08:17:37;7.93;;;6.00;;
38318;SDS011;24121;53.536;10.224;2024-03-06T08:20:04;9.95;;;6.93;;
38318;SDS011;24121;53.536;10.224;2024-03-06T08:22:32;10.35;;;7.60;;
38318;SDS011;24121;53.536;10.224;2024-03-06T08:25:03;9.90;;;6.97;;
38318;SDS011;24121;53.536;10.224;2024-03-06T08:27:29;8.57;;;6.65;;
38318;SDS011;24121;53.536;10.224;2024-03-06T08:29:54;7.05;;;5.75;;
38318;SDS011;24121;53.536;10.224;2024-03-06T08:32:20;8.73;;;6.65;;
38318;SDS011;24121;53.536;10.224;2024-03-06T08:34:45;10.38;;;6.43;;
38318;SDS011;24121;53.536;10.224;2024-03-06T08:37:11;8.70;;;6.07;;
38318;SDS011;24121;53.536;10.224;2024-03-06T08:39:38;9.65;;;6.45;;
38318;SDS011;24121;53.536;10.224;2024-03-06T08:42:04;9.25;;;6.72;;
38318;SDS011;24121;53.536;10.224;2024-03-06T08:44:29;7.18;;;5.80;;
38318;SDS011;24121;53.536;10.224;2024-03-06T08:46:55;7.47;;;5.82;;
38318;SDS011;24121;53.536;10.224;2024-03-06T08:49:21;8.63;;;5.93;;
38318;SDS011;24121;53.536;10.224;2024-03-06T08:51:47;8.43;;;5.93;;
38318;SDS011;24121;53.536;10.224;2024-03-06T08:54:12;8.00;;;5.32;;
38318;SDS011;24121;53.536;10.224;2024-03-06T08:56:37;7.53;;;5.85;;
38318;SDS011;24121;53.536;10.224;2024-03-06T08:59:03;7.18;;;5.80;;
38318;SDS011;24121;53.536;10.224;2024-03-06T09:01:28;8.25;;;6.22;;
38318;SDS011;24121;53.536;10.224;2024-03-06T09:03:53;8.00;;;5.55;;
38318;SDS011;24121;53.536;10.224;2024-03-06T09:06:19;6.63;;;5.40;;
38318;SDS011;24121;53.536;10.224;2024-03-06T09:08:44;7.05;;;5.43;;
38318;SDS011;24121;53.536;10.224;2024-03-06T09:11:09;6.05;;;5.45;;
38318;SDS011;24121;53.536;10.224;2024-03-06T09:13:35;7.47;;;5.75;;
38318;SDS011;24121;53.536;10.224;2024-03-06T09:16:00;10.40;;;5.90;;
38318;SDS011;24121;53.536;10.224;2024-03-06T09:18:25;7.18;;;6.00;;
38318;SDS011;24121;53.536;10.224;2024-03-06T09:20:51;8.05;;;6.28;;
38318;SDS011;24121;53.536;10.224;2024-03-06T09:23:16;7.70;;;5.45;;
38318;SDS011;24121;53.536;10.224;2024-03-06T09:25:41;8.00;;;6.07;;
38318;SDS011;24121;53.536;10.224;2024-03-06T09:28:07;8.90;;;5.45;;
38318;SDS011;24121;53.536;10.224;2024-03-06T09:30:33;8.32;;;5.70;;
38318;SDS011;24121;53.536;10.224;2024-03-06T09:32:59;6.90;;;5.70;;
38318;SDS011;24121;53.536;10.224;2024-03-06T09:35:24;10.18;;;6.65;;
38318;SDS011;24121;53.536;10.224;2024-03-06T09:37:49;9.55;;;6.63;;
38318;SDS011;24121;53.536;10.224;2024-03-06T09:40:21;7.80;;;6.53;;
38318;SDS011;24121;53.536;10.224;2024-03-06T09:42:48;8.02;;;6.50;;
38318;SDS011;24121;53.536;10.224;2024-03-06T09:45:14;9.27;;;6.57;;
38318;SDS011;24121;53.536;10.224;2024-03-06T09:47:40;9.80;;;6.60;;
38318;SDS011;24121;53.536;10.224;2024-03-06T09:50:07;9.07;;;6.82;;
38318;SDS011;24121;53.536;10.224;2024-03-06T09:52:34;9.35;;;6.78;;
38318;SDS011;24121;53.536;10.224;2024-03-06T09:54:59;9.27;;;6.28;;
38318;SDS011;24121;53.536;10.224;2024-03-06T09:57:25;10.68;;;6.63;;
38318;SDS011;24121;53.536;10.224;2024-03-06T09:59:51;8.75;;;6.70;;
38318;SDS011;24121;53.536;10.224;2024-03-06T10:02:29;8.82;;;6.57;;
38318;SDS011;24121;53.536;10.224;2024-03-06T10:04:56;11.45;;;7.65;;
38318;SDS011;24121;53.536;10.224;2024-03-06T10:07:22;10.82;;;7.90;;
38318;SDS011;24121;53.536;10.224;2024-03-06T10:09:47;12.07;;;8.55;;
38318;SDS011;24121;53.536;10.224;2024-03-06T10:12:12;10.63;;;7.45;;
38318;SDS011;24121;53.536;10.224;2024-03-06T10:14:38;12.10;;;8.32;;
38318;SDS011;24121;53.536;10.224;2024-03-06T10:17:03;9.82;;;7.75;;
38318;SDS011;24121;53.536;10.224;2024-03-06T10:19:29;12.80;;;8.27;;
38318;SDS011;24121;53.536;10.224;2024-03-06T10:21:58;11.90;;;8.18;;
38318;SDS011;24121;53.536;10.224;2024-03-06T10:24:24;9.95;;;7.30;;
38318;SDS011;24121;53.536;10.224;2024-03-06T10:26:51;11.43;;;8.40;;
38318;SDS011;24121;53.536;10.224;2024-03-06T10:29:19;10.25;;;6.78;;
38318;SDS011;24121;53.536;10.224;2024-03-06T10:31:51;9.82;;;7.60;;
38318;SDS011;24121;53.536;10.224;2024-03-06T10:34:17;9.73;;;7.55;;
38318;SDS011;24121;53.536;10.224;2024-03-06T10:36:43;10.63;;;7.25;;
38318;SDS011;24121;53.536;10.224;2024-03-06T10:39:10;9.70;;;7.25;;
38318;SDS011;24121;53.536;10.224;2024-03-06T10:41:38;11.07;;;8.05;;
38318;SDS011;24121;53.536;10.224;2024-03-06T10:44:05;9.68;;;7.35;;
38318;SDS011;24121;53.536;10.224;2024-03-06T10:46:34;11.02;;;7.72;;
38318;SDS011;24121;53.536;10.224;2024-03-06T10:48:59;8.95;;;7.70;;
38318;SDS011;24121;53.536;10.224;2024-03-06T10:51:28;9.65;;;7.45;;
38318;SDS011;24121;53.536;10.224;2024-03-06T10:53:55;10.25;;;7.13;;
38318;SDS011;24121;53.536;10.224;2024-03-06T10:56:22;8.27;;;6.85;;
38318;SDS011;24121;53.536;10.224;2024-03-06T10:58:48;10.63;;;7.80;;
38318;SDS011;24121;53.536;10.224;2024-03-06T11:01:16;10.27;;;7.63;;
38318;SDS011;24121;53.536;10.224;2024-03-06T11:03:44;11.27;;;7.53;;
38318;SDS011;24121;53.536;10.224;2024-03-06T11:06:09;13.75;;;8.13;;
38318;SDS011;24121;53.536;10.224;2024-03-06T11:08:34;10.63;;;7.15;;
38318;SDS011;24121;53.536;10.224;2024-03-06T11:11:19;11.45;;;7.03;;
38318;SDS011;24121;53.536;10.224;2024-03-06T11:13:47;11.25;;;6.78;;
38318;SDS011;24121;53.536;10.224;2024-03-06T11:16:13;11.50;;;7.15;;
38318;SDS011;24121;53.536;10.224;2024-03-06T11:23:31;10.43;;;7.00;;
38318;SDS011;24121;53.536;10.224;2024-03-06T11:30:57;8.70;;;6.53;;
38318;SDS011;24121;53.536;10.224;2024-03-06T11:33:43;10.60;;;7.28;;
38318;SDS011;24121;53.536;10.224;2024-03-06T11:36:23;9.60;;;6.60;;
38318;SDS011;24121;53.536;10.224;2024-03-06T11:39:00;8.63;;;6.82;;
38318;SDS011;24121;53.536;10.224;2024-03-06T11:41:29;11.80;;;6.88;;
38318;SDS011;24121;53.536;10.224;2024-03-06T11:43:55;11.05;;;7.15;;
38318;SDS011;24121;53.536;10.224;2024-03-06T11:47:07;9.00;;;7.07;;
38318;SDS011;24121;53.536;10.224;2024-03-06T11:49:17;9.63;;;6.85;;
38318;SDS011;24121;53.536;10.224;2024-03-06T11:51:45;10.93;;;6.85;;
38318;SDS011;24121;53.536;10.224;2024-03-06T11:54:14;9.70;;;6.53;;
38318;SDS011;24121;53.536;10.224;2024-03-06T11:56:40;10.05;;;7.05;;
38318;SDS011;24121;53.536;10.224;2024-03-06T11:59:05;10.88;;;6.80;;
38318;SDS011;24121;53.536;10.224;2024-03-06T12:01:32;8.35;;;6.50;;
38318;SDS011;24121;53.536;10.224;2024-03-06T12:03:58;10.07;;;6.70;;
38318;SDS011;24121;53.536;10.224;2024-03-06T12:06:23;10.27;;;7.28;;
38318;SDS011;24121;53.536;10.224;2024-03-06T12:08:48;8.45;;;6.95;;
38318;SDS011;24121;53.536;10.224;2024-03-06T12:11:14;8.10;;;6.75;;
38318;SDS011;24121;53.536;10.224;2024-03-06T12:13:41;8.48;;;6.32;;
38318;SDS011;24121;53.536;10.224;2024-03-06T12:16:07;11.15;;;7.28;;
38318;SDS011;24121;53.536;10.224;2024-03-06T12:18:32;9.20;;;6.57;;
38318;SDS011;24121;53.536;10.224;2024-03-06T12:20:59;11.50;;;7.65;;
38318;SDS011;24121;53.536;10.224;2024-03-06T12:23:27;11.70;;;7.85;;
38318;SDS011;24121;53.536;10.224;2024-03-06T12:26:03;8.80;;;7.15;;
38318;SDS011;24121;53.536;10.224;2024-03-06T12:28:29;12.45;;;7.50;;
38318;SDS011;24121;53.536;10.224;2024-03-06T12:30:55;8.82;;;6.60;;
38318;SDS011;24121;53.536;10.224;2024-03-06T12:33:21;11.50;;;7.43;;
38318;SDS011;24121;53.536;10.224;2024-03-06T12:35:46;10.50;;;6.55;;
38318;SDS011;24121;53.536;10.224;2024-03-06T12:38:13;9.70;;;6.53;;
38318;SDS011;24121;53.536;10.224;2024-03-06T12:40:40;12.13;;;7.32;;
38318;SDS011;24121;53.536;10.224;2024-03-06T12:43:06;9.75;;;6.15;;
38318;SDS011;24121;53.536;10.224;2024-03-06T12:45:31;10.00;;;7.60;;
38318;SDS011;24121;53.536;10.224;2024-03-06T12:47:57;10.18;;;6.68;;
38318;SDS011;24121;53.536;10.224;2024-03-06T12:50:23;10.35;;;7.13;;
38318;SDS011;24121;53.536;10.224;2024-03-06T12:52:48;8.77;;;6.88;;
38318;SDS011;24121;53.536;10.224;2024-03-06T12:55:14;11.45;;;7.00;;
38318;SDS011;24121;53.536;10.224;2024-03-06T12:57:39;11.10;;;6.70;;
38318;SDS011;24121;53.536;10.224;2024-03-06T13:00:05;9.65;;;7.35;;
38318;SDS011;24121;53.536;10.224;2024-03-06T13:02:40;9.52;;;6.68;;
38318;SDS011;24121;53.536;10.224;2024-03-06T13:05:06;9.85;;;6.88;;
38318;SDS011;24121;53.536;10.224;2024-03-06T13:07:32;8.63;;;6.30;;
38318;SDS011;24121;53.536;10.224;2024-03-06T13:09:57;9.68;;;6.53;;
38318;SDS011;24121;53.536;10.224;2024-03-06T13:12:22;8.98;;;7.03;;
38318;SDS011;24121;53.536;10.224;2024-03-06T13:14:47;7.38;;;6.30;;
38318;SDS011;24121;53.536;10.224;2024-03-06T13:17:13;8.70;;;6.78;;
38318;SDS011;24121;53.536;10.224;2024-03-06T13:19:38;8.27;;;6.30;;
38318;SDS011;24121;53.536;10.224;2024-03-06T13:22:03;9.63;;;6.65;;
38318;SDS011;24121;53.536;10.224;2024-03-06T13:24:31;7.88;;;6.15;;
38318;SDS011;24121;53.536;10.224;2024-03-06T13:26:58;8.90;;;6.18;;
38318;SDS011;24121;53.536;10.224;2024-03-06T13:29:24;7.03;;;6.22;;
38318;SDS011;24121;53.536;10.224;2024-03-06T13:31:49;9.00;;;6.30;;
38318;SDS011;24121;53.536;10.224;2024-03-06T13:34:15;9.38;;;6.85;;
38318;SDS011;24121;53.536;10.224;2024-03-06T13:36:41;9.70;;;6.57;;
38318;SDS011;24121;53.536;10.224;2024-03-06T13:39:06;9.43;;;6.40;;
38318;SDS011;24121;53.536;10.224;2024-03-06T13:41:31;9.23;;;6.93;;
38318;SDS011;24121;53.536;10.224;2024-03-06T13:43:57;8.38;;;6.72;;
38318;SDS011;24121;53.536;10.224;2024-03-06T13:46:22;8.45;;;6.40;;
38318;SDS011;24121;53.536;10.224;2024-03-06T13:48:47;10.65;;;6.43;;
38318;SDS011;24121;53.536;10.224;2024-03-06T13:51:13;9.40;;;6.88;;
38318;SDS011;24121;53.536;10.224;2024-03-06T13:53:38;12.93;;;6.65;;
38318;SDS011;24121;53.536;10.224;2024-03-06T13:56:03;9.20;;;6.45;;
38318;SDS011;24121;53.536;10.224;2024-03-06T13:58:29;9.70;;;6.60;;
38318;SDS011;24121;53.536;10.224;2024-03-06T14:00:54;9.13;;;6.32;;
38318;SDS011;24121;53.536;10.224;2024-03-06T14:03:20;8.40;;;6.40;;
38318;SDS011;24121;53.536;10.224;2024-03-06T14:05:46;9.30;;;6.20;;
38318;SDS011;24121;53.536;10.224;2024-03-06T14:08:11;9.05;;;6.20;;
38318;SDS011;24121;53.536;10.224;2024-03-06T14:10:40;8.18;;;6.82;;
38318;SDS011;24121;53.536;10.224;2024-03-06T14:13:05;7.93;;;5.70;;
38318;SDS011;24121;53.536;10.224;2024-03-06T14:15:31;8.68;;;5.90;;
38318;SDS011;24121;53.536;10.224;2024-03-06T14:17:57;8.73;;;6.13;;
38318;SDS011;24121;53.536;10.224;2024-03-06T14:20:22;8.80;;;6.32;;
38318;SDS011;24121;53.536;10.224;2024-03-06T14:22:48;9.45;;;6.35;;
38318;SDS011;24121;53.536;10.224;2024-03-06T14:25:14;8.48;;;6.70;;
38318;SDS011;24121;53.536;10.224;2024-03-06T14:27:39;9.60;;;6.50;;
38318;SDS011;24121;53.536;10.224;2024-03-06T14:30:05;8.02;;;6.70;;
38318;SDS011;24121;53.536;10.224;2024-03-06T14:32:36;9.05;;;6.30;;
38318;SDS011;24121;53.536;10.224;2024-03-06T14:35:01;11.00;;;6.50;;
38318;SDS011;24121;53.536;10.224;2024-03-06T14:37:27;10.18;;;6.90;;